Terminal Aerodrome Forecast
Issued by NWS Shreveport, LA

Home | Current Version | Previous Version | Text Only | Print | Product List | Glossary On
Versions: 1 2 3 4 5 6 7 8 9 10 11 12 13 14
974
FTUS44 KSHV 110545
TAFGGG
TAF
KGGG 110545Z 1106/1206 17010KT P6SM OVC050
     FM111200 17012G18KT P6SM BKN015
     FM111500 18015G24KT P6SM VCSH BKN009 OVC015
     FM120000 19012KT P6SM VCSH OVC007=

USA.gov is the U.S. government's official web portal to all federal, state and local government web resources and services.